sensor_id;sensor_type;location;lat;lon;timestamp;P1;durP1;ratioP1;P2;durP2;ratioP2
42846;SDS011;28495;49.916;14.536;2023-01-19T00:03:58;7.28;;;4.78;;
42846;SDS011;28495;49.916;14.536;2023-01-19T00:09:19;6.40;;;4.00;;
42846;SDS011;28495;49.916;14.536;2023-01-19T00:14:41;6.25;;;4.20;;
42846;SDS011;28495;49.916;14.536;2023-01-19T00:20:02;8.13;;;4.25;;
42846;SDS011;28495;49.916;14.536;2023-01-19T00:25:23;4.97;;;3.50;;
42846;SDS011;28495;49.916;14.536;2023-01-19T00:30:44;5.60;;;4.00;;
42846;SDS011;28495;49.916;14.536;2023-01-19T00:36:05;6.57;;;4.25;;
42846;SDS011;28495;49.916;14.536;2023-01-19T00:41:26;6.75;;;4.68;;
42846;SDS011;28495;49.916;14.536;2023-01-19T00:47:06;6.47;;;4.10;;
42846;SDS011;28495;49.916;14.536;2023-01-19T00:52:27;4.47;;;3.20;;
42846;SDS011;28495;49.916;14.536;2023-01-19T00:57:48;4.35;;;3.15;;
42846;SDS011;28495;49.916;14.536;2023-01-19T01:03:11;5.13;;;3.50;;
42846;SDS011;28495;49.916;14.536;2023-01-19T01:08:32;5.82;;;3.53;;
42846;SDS011;28495;49.916;14.536;2023-01-19T01:13:54;5.53;;;3.97;;
42846;SDS011;28495;49.916;14.536;2023-01-19T01:19:14;6.40;;;3.63;;
42846;SDS011;28495;49.916;14.536;2023-01-19T01:24:36;8.23;;;4.05;;
42846;SDS011;28495;49.916;14.536;2023-01-19T01:29:57;7.38;;;4.40;;
42846;SDS011;28495;49.916;14.536;2023-01-19T01:35:18;5.57;;;3.67;;
42846;SDS011;28495;49.916;14.536;2023-01-19T01:40:39;6.43;;;3.83;;
42846;SDS011;28495;49.916;14.536;2023-01-19T01:46:00;3.22;;;2.58;;
42846;SDS011;28495;49.916;14.536;2023-01-19T01:56:48;5.82;;;3.67;;
42846;SDS011;28495;49.916;14.536;2023-01-19T02:02:14;5.25;;;3.35;;
42846;SDS011;28495;49.916;14.536;2023-01-19T02:14:05;5.95;;;3.60;;
42846;SDS011;28495;49.916;14.536;2023-01-19T02:19:28;7.10;;;3.95;;
42846;SDS011;28495;49.916;14.536;2023-01-19T02:24:53;3.67;;;2.90;;
42846;SDS011;28495;49.916;14.536;2023-01-19T02:30:14;7.35;;;4.22;;
42846;SDS011;28495;49.916;14.536;2023-01-19T02:35:36;5.72;;;4.05;;
42846;SDS011;28495;49.916;14.536;2023-01-19T02:40:59;6.63;;;4.05;;
42846;SDS011;28495;49.916;14.536;2023-01-19T02:46:23;9.57;;;5.07;;
42846;SDS011;28495;49.916;14.536;2023-01-19T02:51:45;7.93;;;4.65;;
42846;SDS011;28495;49.916;14.536;2023-01-19T03:03:29;5.50;;;3.67;;
42846;SDS011;28495;49.916;14.536;2023-01-19T03:09:06;8.77;;;5.60;;
42846;SDS011;28495;49.916;14.536;2023-01-19T03:14:33;7.18;;;5.03;;
42846;SDS011;28495;49.916;14.536;2023-01-19T03:20:00;8.63;;;5.60;;
42846;SDS011;28495;49.916;14.536;2023-01-19T03:25:24;9.00;;;5.18;;
42846;SDS011;28495;49.916;14.536;2023-01-19T03:30:49;10.02;;;5.70;;
42846;SDS011;28495;49.916;14.536;2023-01-19T03:36:17;10.23;;;4.88;;
42846;SDS011;28495;49.916;14.536;2023-01-19T03:41:43;6.88;;;4.82;;
42846;SDS011;28495;49.916;14.536;2023-01-19T03:47:07;5.85;;;4.35;;
42846;SDS011;28495;49.916;14.536;2023-01-19T03:52:31;10.90;;;5.95;;
42846;SDS011;28495;49.916;14.536;2023-01-19T03:57:53;7.88;;;4.97;;
42846;SDS011;28495;49.916;14.536;2023-01-19T04:03:14;7.70;;;4.85;;
42846;SDS011;28495;49.916;14.536;2023-01-19T04:08:36;9.30;;;4.95;;
42846;SDS011;28495;49.916;14.536;2023-01-19T04:13:57;5.88;;;4.40;;
42846;SDS011;28495;49.916;14.536;2023-01-19T04:19:18;7.90;;;5.38;;
42846;SDS011;28495;49.916;14.536;2023-01-19T04:24:38;8.82;;;5.18;;
42846;SDS011;28495;49.916;14.536;2023-01-19T04:29:59;8.05;;;4.32;;
42846;SDS011;28495;49.916;14.536;2023-01-19T04:35:19;9.57;;;5.38;;
42846;SDS011;28495;49.916;14.536;2023-01-19T04:40:41;7.45;;;4.75;;
42846;SDS011;28495;49.916;14.536;2023-01-19T04:46:02;6.53;;;4.32;;
42846;SDS011;28495;49.916;14.536;2023-01-19T04:51:23;8.57;;;4.07;;
42846;SDS011;28495;49.916;14.536;2023-01-19T04:56:44;7.43;;;4.60;;
42846;SDS011;28495;49.916;14.536;2023-01-19T05:02:06;4.93;;;3.45;;
42846;SDS011;28495;49.916;14.536;2023-01-19T05:07:27;6.30;;;3.90;;
42846;SDS011;28495;49.916;14.536;2023-01-19T05:12:47;6.88;;;3.55;;
42846;SDS011;28495;49.916;14.536;2023-01-19T05:18:08;9.10;;;4.35;;
42846;SDS011;28495;49.916;14.536;2023-01-19T05:23:29;7.10;;;3.95;;
42846;SDS011;28495;49.916;14.536;2023-01-19T05:28:51;7.10;;;3.85;;
42846;SDS011;28495;49.916;14.536;2023-01-19T05:34:12;6.97;;;3.72;;
42846;SDS011;28495;49.916;14.536;2023-01-19T05:39:33;4.03;;;3.03;;
42846;SDS011;28495;49.916;14.536;2023-01-19T05:44:54;5.10;;;3.03;;
42846;SDS011;28495;49.916;14.536;2023-01-19T05:50:15;5.47;;;3.60;;
42846;SDS011;28495;49.916;14.536;2023-01-19T05:55:36;4.63;;;3.40;;
42846;SDS011;28495;49.916;14.536;2023-01-19T06:01:00;4.82;;;3.13;;
42846;SDS011;28495;49.916;14.536;2023-01-19T06:06:22;5.63;;;3.20;;
42846;SDS011;28495;49.916;14.536;2023-01-19T06:11:43;3.72;;;2.92;;
42846;SDS011;28495;49.916;14.536;2023-01-19T06:17:05;5.43;;;3.25;;
42846;SDS011;28495;49.916;14.536;2023-01-19T06:22:27;5.53;;;3.28;;
42846;SDS011;28495;49.916;14.536;2023-01-19T06:27:47;4.68;;;2.92;;
42846;SDS011;28495;49.916;14.536;2023-01-19T06:33:08;6.72;;;4.05;;
42846;SDS011;28495;49.916;14.536;2023-01-19T06:38:29;7.47;;;3.50;;
42846;SDS011;28495;49.916;14.536;2023-01-19T06:43:50;4.40;;;3.10;;
42846;SDS011;28495;49.916;14.536;2023-01-19T06:49:10;4.20;;;2.80;;
42846;SDS011;28495;49.916;14.536;2023-01-19T06:54:31;5.07;;;3.15;;
42846;SDS011;28495;49.916;14.536;2023-01-19T06:59:52;3.90;;;3.40;;
42846;SDS011;28495;49.916;14.536;2023-01-19T07:05:13;7.78;;;3.25;;
42846;SDS011;28495;49.916;14.536;2023-01-19T07:10:34;6.90;;;3.60;;
42846;SDS011;28495;49.916;14.536;2023-01-19T07:16:15;7.40;;;3.90;;
42846;SDS011;28495;49.916;14.536;2023-01-19T07:21:37;5.95;;;3.70;;
42846;SDS011;28495;49.916;14.536;2023-01-19T07:26:57;5.20;;;3.45;;
42846;SDS011;28495;49.916;14.536;2023-01-19T07:32:19;6.78;;;4.05;;
42846;SDS011;28495;49.916;14.536;2023-01-19T07:37:39;6.05;;;4.45;;
42846;SDS011;28495;49.916;14.536;2023-01-19T07:43:00;8.95;;;4.68;;
42846;SDS011;28495;49.916;14.536;2023-01-19T07:48:22;7.18;;;4.43;;
42846;SDS011;28495;49.916;14.536;2023-01-19T07:53:48;8.25;;;4.57;;
42846;SDS011;28495;49.916;14.536;2023-01-19T07:59:10;10.68;;;4.32;;
42846;SDS011;28495;49.916;14.536;2023-01-19T08:04:31;8.07;;;3.33;;
42846;SDS011;28495;49.916;14.536;2023-01-19T08:09:51;5.13;;;3.90;;
42846;SDS011;28495;49.916;14.536;2023-01-19T08:15:12;5.05;;;3.70;;
42846;SDS011;28495;49.916;14.536;2023-01-19T08:20:34;5.88;;;3.65;;
42846;SDS011;28495;49.916;14.536;2023-01-19T08:25:56;8.25;;;4.25;;
42846;SDS011;28495;49.916;14.536;2023-01-19T08:31:16;7.57;;;4.22;;
42846;SDS011;28495;49.916;14.536;2023-01-19T08:36:41;6.80;;;4.13;;
42846;SDS011;28495;49.916;14.536;2023-01-19T08:42:02;10.23;;;4.32;;
42846;SDS011;28495;49.916;14.536;2023-01-19T08:47:23;6.85;;;4.43;;
42846;SDS011;28495;49.916;14.536;2023-01-19T08:52:44;7.22;;;4.38;;
42846;SDS011;28495;49.916;14.536;2023-01-19T08:58:04;5.50;;;3.70;;
42846;SDS011;28495;49.916;14.536;2023-01-19T09:03:27;6.82;;;4.05;;
42846;SDS011;28495;49.916;14.536;2023-01-19T09:08:47;9.82;;;4.20;;
42846;SDS011;28495;49.916;14.536;2023-01-19T09:14:08;6.78;;;3.10;;
42846;SDS011;28495;49.916;14.536;2023-01-19T09:19:29;6.88;;;3.58;;
42846;SDS011;28495;49.916;14.536;2023-01-19T09:24:49;5.93;;;3.25;;
42846;SDS011;28495;49.916;14.536;2023-01-19T09:30:10;6.30;;;3.22;;
42846;SDS011;28495;49.916;14.536;2023-01-19T09:35:35;6.65;;;3.80;;
42846;SDS011;28495;49.916;14.536;2023-01-19T09:40:56;3.92;;;2.65;;
42846;SDS011;28495;49.916;14.536;2023-01-19T09:46:37;6.57;;;3.45;;
42846;SDS011;28495;49.916;14.536;2023-01-19T09:52:00;5.72;;;3.17;;
42846;SDS011;28495;49.916;14.536;2023-01-19T09:57:22;8.52;;;4.40;;
42846;SDS011;28495;49.916;14.536;2023-01-19T10:02:47;7.38;;;3.78;;
42846;SDS011;28495;49.916;14.536;2023-01-19T10:14:03;6.63;;;4.53;;
42846;SDS011;28495;49.916;14.536;2023-01-19T10:19:36;3.90;;;3.13;;
42846;SDS011;28495;49.916;14.536;2023-01-19T10:25:03;8.45;;;3.33;;
42846;SDS011;28495;49.916;14.536;2023-01-19T10:30:27;6.10;;;3.80;;
42846;SDS011;28495;49.916;14.536;2023-01-19T10:35:49;4.15;;;2.80;;
42846;SDS011;28495;49.916;14.536;2023-01-19T10:41:12;5.72;;;2.88;;
42846;SDS011;28495;49.916;14.536;2023-01-19T10:46:43;5.43;;;3.58;;
42846;SDS011;28495;49.916;14.536;2023-01-19T10:52:06;5.57;;;3.80;;
42846;SDS011;28495;49.916;14.536;2023-01-19T10:57:40;4.88;;;3.10;;
42846;SDS011;28495;49.916;14.536;2023-01-19T11:03:03;7.82;;;3.50;;
42846;SDS011;28495;49.916;14.536;2023-01-19T11:08:29;6.88;;;3.83;;
42846;SDS011;28495;49.916;14.536;2023-01-19T11:14:05;8.48;;;3.75;;
42846;SDS011;28495;49.916;14.536;2023-01-19T11:19:30;6.57;;;4.10;;
42846;SDS011;28495;49.916;14.536;2023-01-19T11:24:56;7.57;;;4.40;;
42846;SDS011;28495;49.916;14.536;2023-01-19T11:30:22;8.32;;;4.07;;
42846;SDS011;28495;49.916;14.536;2023-01-19T11:35:45;7.07;;;3.60;;
42846;SDS011;28495;49.916;14.536;2023-01-19T11:41:06;5.22;;;3.47;;
42846;SDS011;28495;49.916;14.536;2023-01-19T11:57:38;7.38;;;4.68;;
42846;SDS011;28495;49.916;14.536;2023-01-19T12:03:16;8.30;;;3.97;;
42846;SDS011;28495;49.916;14.536;2023-01-19T12:08:43;5.70;;;3.85;;
42846;SDS011;28495;49.916;14.536;2023-01-19T12:14:16;7.38;;;2.92;;
42846;SDS011;28495;49.916;14.536;2023-01-19T12:25:44;4.10;;;2.57;;
42846;SDS011;28495;49.916;14.536;2023-01-19T12:31:06;6.10;;;3.38;;
42846;SDS011;28495;49.916;14.536;2023-01-19T12:42:02;5.28;;;3.08;;
42846;SDS011;28495;49.916;14.536;2023-01-19T12:47:38;7.28;;;3.72;;
42846;SDS011;28495;49.916;14.536;2023-01-19T12:53:00;5.00;;;3.40;;
42846;SDS011;28495;49.916;14.536;2023-01-19T12:58:23;3.95;;;2.33;;
42846;SDS011;28495;49.916;14.536;2023-01-19T13:03:56;6.68;;;2.35;;
42846;SDS011;28495;49.916;14.536;2023-01-19T13:09:33;4.40;;;2.47;;
42846;SDS011;28495;49.916;14.536;2023-01-19T13:20:52;5.97;;;3.03;;
42846;SDS011;28495;49.916;14.536;2023-01-19T13:26:29;7.68;;;4.40;;
42846;SDS011;28495;49.916;14.536;2023-01-19T13:31:53;6.88;;;3.92;;
42846;SDS011;28495;49.916;14.536;2023-01-19T13:37:22;5.20;;;3.15;;
42846;SDS011;28495;49.916;14.536;2023-01-19T13:42:48;5.95;;;3.95;;
42846;SDS011;28495;49.916;14.536;2023-01-19T13:48:13;5.68;;;2.67;;
42846;SDS011;28495;49.916;14.536;2023-01-19T13:53:37;8.55;;;4.53;;
42846;SDS011;28495;49.916;14.536;2023-01-19T13:58:59;6.90;;;3.38;;
42846;SDS011;28495;49.916;14.536;2023-01-19T14:04:30;5.90;;;3.88;;
42846;SDS011;28495;49.916;14.536;2023-01-19T14:10:03;6.00;;;3.10;;
42846;SDS011;28495;49.916;14.536;2023-01-19T14:15:26;8.52;;;4.72;;
42846;SDS011;28495;49.916;14.536;2023-01-19T14:21:07;7.15;;;3.83;;
42846;SDS011;28495;49.916;14.536;2023-01-19T14:37:45;7.00;;;4.45;;
42846;SDS011;28495;49.916;14.536;2023-01-19T14:43:09;5.53;;;3.63;;
42846;SDS011;28495;49.916;14.536;2023-01-19T14:48:32;6.78;;;3.25;;
42846;SDS011;28495;49.916;14.536;2023-01-19T14:53:53;6.47;;;3.97;;
42846;SDS011;28495;49.916;14.536;2023-01-19T14:59:18;7.15;;;3.78;;
42846;SDS011;28495;49.916;14.536;2023-01-19T15:04:39;3.70;;;3.17;;
42846;SDS011;28495;49.916;14.536;2023-01-19T15:09:59;6.88;;;3.95;;
42846;SDS011;28495;49.916;14.536;2023-01-19T15:15:23;5.70;;;3.92;;
42846;SDS011;28495;49.916;14.536;2023-01-19T15:20:51;6.22;;;4.15;;
42846;SDS011;28495;49.916;14.536;2023-01-19T15:26:16;6.43;;;3.65;;
42846;SDS011;28495;49.916;14.536;2023-01-19T15:31:38;3.92;;;3.05;;
42846;SDS011;28495;49.916;14.536;2023-01-19T15:36:59;6.10;;;3.92;;
42846;SDS011;28495;49.916;14.536;2023-01-19T15:42:20;6.90;;;4.00;;
42846;SDS011;28495;49.916;14.536;2023-01-19T15:47:41;6.07;;;3.55;;
42846;SDS011;28495;49.916;14.536;2023-01-19T15:53:01;6.53;;;3.70;;
42846;SDS011;28495;49.916;14.536;2023-01-19T15:58:23;6.75;;;3.88;;
42846;SDS011;28495;49.916;14.536;2023-01-19T16:03:44;8.02;;;3.92;;
42846;SDS011;28495;49.916;14.536;2023-01-19T16:09:05;5.93;;;3.55;;
42846;SDS011;28495;49.916;14.536;2023-01-19T16:14:26;6.65;;;3.97;;
42846;SDS011;28495;49.916;14.536;2023-01-19T16:19:47;9.40;;;4.28;;
42846;SDS011;28495;49.916;14.536;2023-01-19T16:25:08;6.20;;;3.95;;
42846;SDS011;28495;49.916;14.536;2023-01-19T16:30:29;7.88;;;4.93;;
42846;SDS011;28495;49.916;14.536;2023-01-19T16:35:51;8.13;;;5.10;;
42846;SDS011;28495;49.916;14.536;2023-01-19T16:41:12;9.88;;;5.45;;
42846;SDS011;28495;49.916;14.536;2023-01-19T16:46:34;13.48;;;6.93;;
42846;SDS011;28495;49.916;14.536;2023-01-19T16:51:56;11.55;;;6.43;;
42846;SDS011;28495;49.916;14.536;2023-01-19T16:57:18;11.80;;;7.22;;
42846;SDS011;28495;49.916;14.536;2023-01-19T17:02:38;13.27;;;7.07;;
42846;SDS011;28495;49.916;14.536;2023-01-19T17:07:59;14.00;;;8.48;;
42846;SDS011;28495;49.916;14.536;2023-01-19T17:13:20;16.00;;;7.35;;
42846;SDS011;28495;49.916;14.536;2023-01-19T17:18:41;9.43;;;5.68;;
42846;SDS011;28495;49.916;14.536;2023-01-19T17:24:02;9.50;;;4.55;;
42846;SDS011;28495;49.916;14.536;2023-01-19T17:29:26;10.52;;;5.53;;
42846;SDS011;28495;49.916;14.536;2023-01-19T17:34:47;8.02;;;4.57;;
42846;SDS011;28495;49.916;14.536;2023-01-19T17:40:08;7.63;;;4.97;;
42846;SDS011;28495;49.916;14.536;2023-01-19T17:45:30;8.18;;;5.18;;
42846;SDS011;28495;49.916;14.536;2023-01-19T17:50:53;9.82;;;5.18;;
42846;SDS011;28495;49.916;14.536;2023-01-19T17:56:15;8.32;;;5.03;;
42846;SDS011;28495;49.916;14.536;2023-01-19T18:01:38;10.45;;;5.15;;
42846;SDS011;28495;49.916;14.536;2023-01-19T18:06:59;8.48;;;4.93;;
42846;SDS011;28495;49.916;14.536;2023-01-19T18:12:21;12.32;;;5.75;;
42846;SDS011;28495;49.916;14.536;2023-01-19T18:17:43;8.07;;;5.05;;
42846;SDS011;28495;49.916;14.536;2023-01-19T18:23:05;6.35;;;3.28;;
42846;SDS011;28495;49.916;14.536;2023-01-19T18:28:28;7.70;;;4.30;;
42846;SDS011;28495;49.916;14.536;2023-01-19T18:33:50;5.85;;;3.80;;
42846;SDS011;28495;49.916;14.536;2023-01-19T18:39:12;6.05;;;4.10;;
42846;SDS011;28495;49.916;14.536;2023-01-19T18:44:33;5.10;;;3.17;;
42846;SDS011;28495;49.916;14.536;2023-01-19T18:49:55;4.10;;;2.88;;
42846;SDS011;28495;49.916;14.536;2023-01-19T18:55:16;5.25;;;3.63;;
42846;SDS011;28495;49.916;14.536;2023-01-19T19:00:36;5.82;;;4.15;;
42846;SDS011;28495;49.916;14.536;2023-01-19T19:06:00;6.25;;;4.30;;
42846;SDS011;28495;49.916;14.536;2023-01-19T19:11:23;7.32;;;4.03;;
42846;SDS011;28495;49.916;14.536;2023-01-19T19:16:45;7.85;;;4.38;;
42846;SDS011;28495;49.916;14.536;2023-01-19T19:22:06;6.60;;;4.53;;
42846;SDS011;28495;49.916;14.536;2023-01-19T19:27:27;8.65;;;4.68;;
42846;SDS011;28495;49.916;14.536;2023-01-19T19:32:54;7.85;;;4.20;;
42846;SDS011;28495;49.916;14.536;2023-01-19T19:38:15;5.75;;;3.53;;
42846;SDS011;28495;49.916;14.536;2023-01-19T19:43:36;8.25;;;3.95;;
42846;SDS011;28495;49.916;14.536;2023-01-19T19:48:58;6.63;;;3.90;;
42846;SDS011;28495;49.916;14.536;2023-01-19T19:54:19;6.50;;;4.10;;
42846;SDS011;28495;49.916;14.536;2023-01-19T19:59:39;6.97;;;4.38;;
42846;SDS011;28495;49.916;14.536;2023-01-19T20:05:01;7.72;;;4.97;;
42846;SDS011;28495;49.916;14.536;2023-01-19T20:10:22;8.40;;;4.97;;
42846;SDS011;28495;49.916;14.536;2023-01-19T20:15:45;8.80;;;4.88;;
42846;SDS011;28495;49.916;14.536;2023-01-19T20:21:09;7.88;;;4.45;;
42846;SDS011;28495;49.916;14.536;2023-01-19T20:26:32;12.63;;;6.78;;
42846;SDS011;28495;49.916;14.536;2023-01-19T20:31:54;32.58;;;19.27;;
42846;SDS011;28495;49.916;14.536;2023-01-19T20:37:15;37.33;;;21.30;;
42846;SDS011;28495;49.916;14.536;2023-01-19T20:42:36;36.72;;;20.17;;
42846;SDS011;28495;49.916;14.536;2023-01-19T20:48:00;34.83;;;17.75;;
42846;SDS011;28495;49.916;14.536;2023-01-19T20:53:21;20.08;;;12.80;;
42846;SDS011;28495;49.916;14.536;2023-01-19T20:58:42;21.83;;;13.70;;
42846;SDS011;28495;49.916;14.536;2023-01-19T21:04:03;24.63;;;12.05;;
42846;SDS011;28495;49.916;14.536;2023-01-19T21:09:24;23.42;;;13.18;;
42846;SDS011;28495;49.916;14.536;2023-01-19T21:14:45;30.30;;;16.23;;
42846;SDS011;28495;49.916;14.536;2023-01-19T21:20:06;33.20;;;17.88;;
42846;SDS011;28495;49.916;14.536;2023-01-19T21:25:27;33.38;;;18.60;;
42846;SDS011;28495;49.916;14.536;2023-01-19T21:30:49;27.98;;;16.05;;
42846;SDS011;28495;49.916;14.536;2023-01-19T21:36:10;29.77;;;15.95;;
42846;SDS011;28495;49.916;14.536;2023-01-19T21:41:31;34.92;;;20.35;;
42846;SDS011;28495;49.916;14.536;2023-01-19T21:46:54;31.42;;;17.38;;
42846;SDS011;28495;49.916;14.536;2023-01-19T21:52:15;32.10;;;18.17;;
42846;SDS011;28495;49.916;14.536;2023-01-19T21:57:35;40.22;;;21.45;;
42846;SDS011;28495;49.916;14.536;2023-01-19T22:02:56;41.30;;;22.25;;
42846;SDS011;28495;49.916;14.536;2023-01-19T22:08:23;37.03;;;21.98;;
42846;SDS011;28495;49.916;14.536;2023-01-19T22:13:44;43.00;;;23.98;;
42846;SDS011;28495;49.916;14.536;2023-01-19T22:19:06;39.28;;;20.88;;
42846;SDS011;28495;49.916;14.536;2023-01-19T22:24:31;33.17;;;18.85;;
42846;SDS011;28495;49.916;14.536;2023-01-19T22:29:52;30.75;;;16.05;;
42846;SDS011;28495;49.916;14.536;2023-01-19T22:35:13;19.27;;;11.02;;
42846;SDS011;28495;49.916;14.536;2023-01-19T22:40:35;27.60;;;15.20;;
42846;SDS011;28495;49.916;14.536;2023-01-19T22:45:55;24.77;;;16.00;;
42846;SDS011;28495;49.916;14.536;2023-01-19T22:51:18;31.00;;;18.50;;
42846;SDS011;28495;49.916;14.536;2023-01-19T22:56:40;30.65;;;15.80;;
42846;SDS011;28495;49.916;14.536;2023-01-19T23:02:02;32.17;;;18.08;;
42846;SDS011;28495;49.916;14.536;2023-01-19T23:07:23;33.10;;;18.52;;
42846;SDS011;28495;49.916;14.536;2023-01-19T23:12:44;32.38;;;18.52;;
42846;SDS011;28495;49.916;14.536;2023-01-19T23:18:06;30.25;;;16.23;;
42846;SDS011;28495;49.916;14.536;2023-01-19T23:23:26;31.20;;;16.90;;
42846;SDS011;28495;49.916;14.536;2023-01-19T23:28:51;23.95;;;13.90;;
42846;SDS011;28495;49.916;14.536;2023-01-19T23:34:16;24.95;;;13.07;;
42846;SDS011;28495;49.916;14.536;2023-01-19T23:39:37;22.52;;;13.10;;
42846;SDS011;28495;49.916;14.536;2023-01-19T23:44:57;36.13;;;14.85;;
42846;SDS011;28495;49.916;14.536;2023-01-19T23:50:18;19.25;;;12.38;;
42846;SDS011;28495;49.916;14.536;2023-01-19T23:55:39;25.17;;;13.07;;
